sensor_id;sensor_type;location;lat;lon;timestamp;P1;P2;P0
76045;PMS7003;64741;41.730;44.788;2023-04-06T00:01:33;2.8;2;1
76045;PMS7003;64741;41.730;44.788;2023-04-06T00:06:29;2.4;2;0.6
76045;PMS7003;64741;41.730;44.788;2023-04-06T00:11:39;2.2;1.6;1
76045;PMS7003;64741;41.730;44.788;2023-04-06T00:16:33;1.8;1;0.6
76045;PMS7003;64741;41.730;44.788;2023-04-06T00:21:33;1.8;1;0.4
76045;PMS7003;64741;41.730;44.788;2023-04-06T00:26:33;2;1.6;1
76045;PMS7003;64741;41.730;44.788;2023-04-06T00:31:39;2.6;2;1
76045;PMS7003;64741;41.730;44.788;2023-04-06T00:36:29;3;1.8;1.2
76045;PMS7003;64741;41.730;44.788;2023-04-06T00:41:38;1.8;1.4;1
76045;PMS7003;64741;41.730;44.788;2023-04-06T00:46:33;1;1;0.4
76045;PMS7003;64741;41.730;44.788;2023-04-06T00:51:33;2;1.6;0.8
76045;PMS7003;64741;41.730;44.788;2023-04-06T00:56:40;1;0.8;0.2
76045;PMS7003;64741;41.730;44.788;2023-04-06T01:01:29;1.6;1.2;0.8
76045;PMS7003;64741;41.730;44.788;2023-04-06T01:06:39;1.6;1;0.2
76045;PMS7003;64741;41.730;44.788;2023-04-06T01:11:33;2.4;1.2;1
76045;PMS7003;64741;41.730;44.788;2023-04-06T01:16:31;1.6;1;0.6
76045;PMS7003;64741;41.730;44.788;2023-04-06T01:21:27;1.4;0.6;0.4
76045;PMS7003;64741;41.730;44.788;2023-04-06T01:26:27;1;1;0.6
76045;PMS7003;64741;41.730;44.788;2023-04-06T01:31:39;2;1.4;1
76045;PMS7003;64741;41.730;44.788;2023-04-06T01:36:31;1.4;0.8;0.6
76045;PMS7003;64741;41.730;44.788;2023-04-06T01:41:31;0.8;0.6;0.2
76045;PMS7003;64741;41.730;44.788;2023-04-06T01:46:39;1.8;1.2;0.8
76045;PMS7003;64741;41.730;44.788;2023-04-06T01:51:29;2;1.6;0.8
76045;PMS7003;64741;41.730;44.788;2023-04-06T01:56:39;1.6;1.2;1
76045;PMS7003;64741;41.730;44.788;2023-04-06T02:01:33;1.8;1.2;1
76045;PMS7003;64741;41.730;44.788;2023-04-06T02:06:17;1.6;1;0.6
76045;PMS7003;64741;41.730;44.788;2023-04-06T02:11:39;1.6;1;0.6
76045;PMS7003;64741;41.730;44.788;2023-04-06T02:16:29;1.2;1;0.4
76045;PMS7003;64741;41.730;44.788;2023-04-06T02:21:39;1.2;1.2;0.6
76045;PMS7003;64741;41.730;44.788;2023-04-06T02:26:33;1.2;0.8;0.4
76045;PMS7003;64741;41.730;44.788;2023-04-06T02:31:31;1.6;1.2;0.6
76045;PMS7003;64741;41.730;44.788;2023-04-06T02:36:39;1.4;0.4;0.2
76045;PMS7003;64741;41.730;44.788;2023-04-06T02:41:29;1.4;1;0.6
76045;PMS7003;64741;41.730;44.788;2023-04-06T02:46:39;1.2;0.6;0
76045;PMS7003;64741;41.730;44.788;2023-04-06T02:51:33;2;1.4;0.4
76045;PMS7003;64741;41.730;44.788;2023-04-06T02:56:33;0.8;0.6;0.2
76045;PMS7003;64741;41.730;44.788;2023-04-06T03:01:39;1;1;1
76045;PMS7003;64741;41.730;44.788;2023-04-06T03:06:29;1.8;0.8;0.4
76045;PMS7003;64741;41.730;44.788;2023-04-06T03:11:39;1;0.8;0.2
76045;PMS7003;64741;41.730;44.788;2023-04-06T03:16:33;0.8;0.4;0.2
76045;PMS7003;64741;41.730;44.788;2023-04-06T03:21:33;1.3;1;0.5
76045;PMS7003;64741;41.730;44.788;2023-04-06T03:26:39;1.8;1;0.6
76045;PMS7003;64741;41.730;44.788;2023-04-06T03:31:29;1.2;0.8;0.6
76045;PMS7003;64741;41.730;44.788;2023-04-06T03:36:39;1.4;1.2;1
76045;PMS7003;64741;41.730;44.788;2023-04-06T03:41:33;1;1;0.2
76045;PMS7003;64741;41.730;44.788;2023-04-06T03:46:33;0.6;0.6;0.6
76045;PMS7003;64741;41.730;44.788;2023-04-06T03:51:39;1;0.6;0.2
76045;PMS7003;64741;41.730;44.788;2023-04-06T03:56:29;1;1;0.4
76045;PMS7003;64741;41.730;44.788;2023-04-06T04:01:37;1;1;0.4
76045;PMS7003;64741;41.730;44.788;2023-04-06T04:06:33;0.4;0.2;0
76045;PMS7003;64741;41.730;44.788;2023-04-06T04:11:33;1.6;0.8;0.4
76045;PMS7003;64741;41.730;44.788;2023-04-06T04:16:39;1.4;1;0.8
76045;PMS7003;64741;41.730;44.788;2023-04-06T04:21:29;1;0.6;0.4
76045;PMS7003;64741;41.730;44.788;2023-04-06T04:26:39;1.6;0.8;0.2
76045;PMS7003;64741;41.730;44.788;2023-04-06T04:31:33;1.2;1.2;0.4
76045;PMS7003;64741;41.730;44.788;2023-04-06T04:36:31;1;1;0.2
76045;PMS7003;64741;41.730;44.788;2023-04-06T04:41:33;1.6;0.6;0
76045;PMS7003;64741;41.730;44.788;2023-04-06T04:46:27;1.6;0.8;0.2
76045;PMS7003;64741;41.730;44.788;2023-04-06T04:51:37;1.4;1.2;0.8
76045;PMS7003;64741;41.730;44.788;2023-04-06T04:56:33;1.6;0.6;0.2
76045;PMS7003;64741;41.730;44.788;2023-04-06T05:01:31;0.8;0.2;0
76045;PMS7003;64741;41.730;44.788;2023-04-06T05:06:33;1.6;1;0.8
76045;PMS7003;64741;41.730;44.788;2023-04-06T05:11:27;0.6;0.6;0.2
76045;PMS7003;64741;41.730;44.788;2023-04-06T05:16:39;0.6;0.6;0.4
76045;PMS7003;64741;41.730;44.788;2023-04-06T05:21:18;1.4;0.6;0.4
76045;PMS7003;64741;41.730;44.788;2023-04-06T05:26:33;1.2;0.4;0
76045;PMS7003;64741;41.730;44.788;2023-04-06T05:31:33;0.4;0.2;0.2
76045;PMS7003;64741;41.730;44.788;2023-04-06T05:36:27;1;0.4;0
76045;PMS7003;64741;41.730;44.788;2023-04-06T05:41:39;0.8;0.4;0.2
76045;PMS7003;64741;41.730;44.788;2023-04-06T05:46:33;0.4;0.2;0
76045;PMS7003;64741;41.730;44.788;2023-04-06T05:51:31;1;0.6;0.4
76045;PMS7003;64741;41.730;44.788;2023-04-06T05:56:33;0.2;0;0
76045;PMS7003;64741;41.730;44.788;2023-04-06T06:01:27;0.8;0.2;0.2
76045;PMS7003;64741;41.730;44.788;2023-04-06T06:06:37;1;0.6;0.2
76045;PMS7003;64741;41.730;44.788;2023-04-06T06:11:34;0.6;0;0
76045;PMS7003;64741;41.730;44.788;2023-04-06T06:16:31;0.4;0.2;0.2
76045;PMS7003;64741;41.730;44.788;2023-04-06T06:21:33;0.4;0.4;0.4
76045;PMS7003;64741;41.730;44.788;2023-04-06T06:26:29;0.2;0.2;0
76045;PMS7003;64741;41.730;44.788;2023-04-06T06:31:37;0.6;0.2;0
76045;PMS7003;64741;41.730;44.788;2023-04-06T06:36:33;2.6;2.4;1.8
76045;PMS7003;64741;41.730;44.788;2023-04-06T06:41:29;17.8;15.6;11.6
76045;PMS7003;64741;41.730;44.788;2023-04-06T06:46:33;21.4;18;13
76045;PMS7003;64741;41.730;44.788;2023-04-06T06:51:25;19.2;16.4;11.8
76045;PMS7003;64741;41.730;44.788;2023-04-06T06:56:37;14.8;12.6;8.6
76045;PMS7003;64741;41.730;44.788;2023-04-06T07:01:33;15.8;14.8;10.2
76045;PMS7003;64741;41.730;44.788;2023-04-06T07:06:31;15.6;14.4;10
76045;PMS7003;64741;41.730;44.788;2023-04-06T07:11:33;14.2;11.8;9
76045;PMS7003;64741;41.730;44.788;2023-04-06T07:16:27;14.2;12.4;8.8
76045;PMS7003;64741;41.730;44.788;2023-04-06T07:21:37;13.6;11.4;8.2
76045;PMS7003;64741;41.730;44.788;2023-04-06T07:26:33;12.6;10.2;7
76045;PMS7003;64741;41.730;44.788;2023-04-06T07:31:31;11.6;9.2;6.6
76045;PMS7003;64741;41.730;44.788;2023-04-06T07:36:33;9.8;8.2;5.8
76045;PMS7003;64741;41.730;44.788;2023-04-06T07:41:27;10.2;8;5.8
76045;PMS7003;64741;41.730;44.788;2023-04-06T07:46:25;8;6.8;5.4
76045;PMS7003;64741;41.730;44.788;2023-04-06T07:51:35;8;6.8;4.8
76045;PMS7003;64741;41.730;44.788;2023-04-06T07:56:31;7.2;6.4;4.6
76045;PMS7003;64741;41.730;44.788;2023-04-06T08:01:33;5.4;4.6;4
76045;PMS7003;64741;41.730;44.788;2023-04-06T08:06:21;121.6;97.4;61.6
76045;PMS7003;64741;41.730;44.788;2023-04-06T08:11:37;159.4;134;85.2
76045;PMS7003;64741;41.730;44.788;2023-04-06T08:16:31;135;110;70.8
76045;PMS7003;64741;41.730;44.788;2023-04-06T08:21:15;106.4;92;57
76045;PMS7003;64741;41.730;44.788;2023-04-06T08:26:25;85.4;70.8;46.8
76045;PMS7003;64741;41.730;44.788;2023-04-06T08:31:28;77;62.5;41
76045;PMS7003;64741;41.730;44.788;2023-04-06T08:36:35;72;56.6;37
76045;PMS7003;64741;41.730;44.788;2023-04-06T08:41:27;70.4;56.2;36
76045;PMS7003;64741;41.730;44.788;2023-04-06T08:46:30;65.4;50;32.4
76045;PMS7003;64741;41.730;44.788;2023-04-06T08:51:31;61.4;47;31
76045;PMS7003;64741;41.730;44.788;2023-04-06T08:56:28;54.6;42.6;27.8
76045;PMS7003;64741;41.730;44.788;2023-04-06T09:01:36;52.8;40.6;26.8
76045;PMS7003;64741;41.730;44.788;2023-04-06T09:06:27;51;38.8;26
76045;PMS7003;64741;41.730;44.788;2023-04-06T09:11:40;45;35.6;24
76045;PMS7003;64741;41.730;44.788;2023-04-06T09:16:38;42.4;33.4;22
76045;PMS7003;64741;41.730;44.788;2023-04-06T09:21:27;39;32.4;21.4
76045;PMS7003;64741;41.730;44.788;2023-04-06T09:26:51;35.8;30.4;21.2
76045;PMS7003;64741;41.730;44.788;2023-04-06T09:31:26;33.6;29.2;19.4
76045;PMS7003;64741;41.730;44.788;2023-04-06T09:36:32;30.2;26;17.4
76045;PMS7003;64741;41.730;44.788;2023-04-06T09:41:30;31;26;17.6
76045;PMS7003;64741;41.730;44.788;2023-04-06T09:46:27;27.6;22.8;15.8
76045;PMS7003;64741;41.730;44.788;2023-04-06T09:51:25;28.6;22.6;15.8
76045;PMS7003;64741;41.730;44.788;2023-04-06T09:56:28;23.2;20;13.4
76045;PMS7003;64741;41.730;44.788;2023-04-06T10:00:55;20.8;17.8;12.6
76045;PMS7003;64741;41.730;44.788;2023-04-06T10:06:32;20.8;16.2;12
76045;PMS7003;64741;41.730;44.788;2023-04-06T10:11:27;18.6;15.8;10.6
76045;PMS7003;64741;41.730;44.788;2023-04-06T10:16:35;18;14.4;9.6
76045;PMS7003;64741;41.730;44.788;2023-04-06T10:21:27;17.8;14;9.8
76045;PMS7003;64741;41.730;44.788;2023-04-06T10:26:27;12;10.6;7.4
76045;PMS7003;64741;41.730;44.788;2023-04-06T10:31:31;13.2;11.8;8.2
76045;PMS7003;64741;41.730;44.788;2023-04-06T10:36:28;11.8;10.6;7.6
76045;PMS7003;64741;41.730;44.788;2023-04-06T10:41:21;11.4;10.2;7.2
76045;PMS7003;64741;41.730;44.788;2023-04-06T10:46:28;11.4;9.2;6.6
76045;PMS7003;64741;41.730;44.788;2023-04-06T10:51:29;10;8.6;6.4
76045;PMS7003;64741;41.730;44.788;2023-04-06T10:56:31;12;8.8;6
76045;PMS7003;64741;41.730;44.788;2023-04-06T11:01:29;10.4;7;4.8
76045;PMS7003;64741;41.730;44.788;2023-04-06T11:06:33;11.2;9;6.2
76045;PMS7003;64741;41.730;44.788;2023-04-06T11:11:27;11;10.4;7.4
76045;PMS7003;64741;41.730;44.788;2023-04-06T11:16:28;18;15.2;11
76045;PMS7003;64741;41.730;44.788;2023-04-06T11:21:32;16.8;15.2;11.6
76045;PMS7003;64741;41.730;44.788;2023-04-06T11:26:27;16.8;14.2;10
76045;PMS7003;64741;41.730;44.788;2023-04-06T11:31:39;16.4;14.4;10.6
76045;PMS7003;64741;41.730;44.788;2023-04-06T11:36:26;17.8;14.8;11.2
76045;PMS7003;64741;41.730;44.788;2023-04-06T11:41:29;17.6;16.2;11.8
76045;PMS7003;64741;41.730;44.788;2023-04-06T11:46:31;18.4;16;11.8
76045;PMS7003;64741;41.730;44.788;2023-04-06T11:51:29;19;16.4;11.8
76045;PMS7003;64741;41.730;44.788;2023-04-06T11:56:37;19.4;16.4;12.2
76045;PMS7003;64741;41.730;44.788;2023-04-06T12:01:27;18.4;16.4;12.4
76045;PMS7003;64741;41.730;44.788;2023-04-06T12:06:29;19.8;16;12.2
76045;PMS7003;64741;41.730;44.788;2023-04-06T12:11:31;16.8;15.2;11
76045;PMS7003;64741;41.730;44.788;2023-04-06T12:16:27;19.6;16;11.8
76045;PMS7003;64741;41.730;44.788;2023-04-06T12:21:35;19.2;17.4;12.6
76045;PMS7003;64741;41.730;44.788;2023-04-06T12:26:27;21;17.8;13.4
76045;PMS7003;64741;41.730;44.788;2023-04-06T12:31:29;22.8;19.6;13.8
76045;PMS7003;64741;41.730;44.788;2023-04-06T12:36:31;20;18;13.2
76045;PMS7003;64741;41.730;44.788;2023-04-06T12:41:28;21.8;19.8;15.2
76045;PMS7003;64741;41.730;44.788;2023-04-06T12:46:31;20.6;18.2;13.4
76045;PMS7003;64741;41.730;44.788;2023-04-06T12:51:28;17.8;15;11.4
76045;PMS7003;64741;41.730;44.788;2023-04-06T12:56:29;18.8;16.4;12
76045;PMS7003;64741;41.730;44.788;2023-04-06T13:01:31;19.6;16.6;12.8
76045;PMS7003;64741;41.730;44.788;2023-04-06T13:06:28;18.8;16;12.2
76045;PMS7003;64741;41.730;44.788;2023-04-06T13:11:35;16.4;14.6;11
76045;PMS7003;64741;41.730;44.788;2023-04-06T13:16:27;15.4;14.2;10.4
76045;PMS7003;64741;41.730;44.788;2023-04-06T13:21:29;13;10.8;8.4
76045;PMS7003;64741;41.730;44.788;2023-04-06T13:26:32;12.4;10.8;8.2
76045;PMS7003;64741;41.730;44.788;2023-04-06T13:31:27;11.2;10.4;7.2
76045;PMS7003;64741;41.730;44.788;2023-04-06T13:36:35;10.6;8.4;6.4
76045;PMS7003;64741;41.730;44.788;2023-04-06T13:41:29;10.3;8.5;6.8
76045;PMS7003;64741;41.730;44.788;2023-04-06T13:46:30;8.4;7.6;5.4
76045;PMS7003;64741;41.730;44.788;2023-04-06T13:51:33;9.4;7.4;5.8
76045;PMS7003;64741;41.730;44.788;2023-04-06T13:56:30;7;6;4.2
76045;PMS7003;64741;41.730;44.788;2023-04-06T14:01:33;7.2;6;4.6
76045;PMS7003;64741;41.730;44.788;2023-04-06T14:06:10;7;5.8;4.6
76045;PMS7003;64741;41.730;44.788;2023-04-06T14:11:31;6.8;6.2;4
76045;PMS7003;64741;41.730;44.788;2023-04-06T14:16:32;6;5.2;3.8
76045;PMS7003;64741;41.730;44.788;2023-04-06T14:21:30;7;5.6;4.2
76045;PMS7003;64741;41.730;44.788;2023-04-06T14:26:36;6.8;6;4.6
76045;PMS7003;64741;41.730;44.788;2023-04-06T14:31:32;6.6;5.4;4
76045;PMS7003;64741;41.730;44.788;2023-04-06T14:36:33;5.4;4.6;3.2
76045;PMS7003;64741;41.730;44.788;2023-04-06T14:41:34;7.2;5.6;3.8
76045;PMS7003;64741;41.730;44.788;2023-04-06T14:46:30;4.6;3.6;2.6
76045;PMS7003;64741;41.730;44.788;2023-04-06T14:51:38;5.6;4.2;3
76045;PMS7003;64741;41.730;44.788;2023-04-06T14:56:32;6.8;4.8;3.2
76045;PMS7003;64741;41.730;44.788;2023-04-06T15:01:20;5;3.8;2.8
76045;PMS7003;64741;41.730;44.788;2023-04-06T15:06:34;5;4.2;3.2
76045;PMS7003;64741;41.730;44.788;2023-04-06T15:11:32;4.4;3.8;2.8
76045;PMS7003;64741;41.730;44.788;2023-04-06T15:16:38;5.6;4.4;3.4
76045;PMS7003;64741;41.730;44.788;2023-04-06T15:21:32;4;2.4;1.8
76045;PMS7003;64741;41.730;44.788;2023-04-06T15:26:32;4.2;3.8;2.8
76045;PMS7003;64741;41.730;44.788;2023-04-06T15:31:32;5.6;4;2.8
76045;PMS7003;64741;41.730;44.788;2023-04-06T15:36:32;4.6;3.2;2.4
76045;PMS7003;64741;41.730;44.788;2023-04-06T15:41:36;4.6;3.8;2.4
76045;PMS7003;64741;41.730;44.788;2023-04-06T15:46:32;4.2;3.8;2.8
76045;PMS7003;64741;41.730;44.788;2023-04-06T15:51:34;3.8;3.6;2.4
76045;PMS7003;64741;41.730;44.788;2023-04-06T15:56:34;4.8;3.6;2.6
76045;PMS7003;64741;41.730;44.788;2023-04-06T16:01:32;4.2;3.6;2.8
76045;PMS7003;64741;41.730;44.788;2023-04-06T16:06:40;5;3.4;2.4
76045;PMS7003;64741;41.730;44.788;2023-04-06T16:11:32;4.2;3;2
76045;PMS7003;64741;41.730;44.788;2023-04-06T16:16:32;3.8;3.4;2.4
76045;PMS7003;64741;41.730;44.788;2023-04-06T16:21:32;3.6;3.4;2.8
76045;PMS7003;64741;41.730;44.788;2023-04-06T16:26:32;3.4;2.8;2
76045;PMS7003;64741;41.730;44.788;2023-04-06T16:31:34;5.2;3.8;3.2
76045;PMS7003;64741;41.730;44.788;2023-04-06T16:36:32;4;3.6;2.8
76045;PMS7003;64741;41.730;44.788;2023-04-06T16:41:34;3.4;2.4;2.2
76045;PMS7003;64741;41.730;44.788;2023-04-06T16:46:32;4.4;3.8;2.8
76045;PMS7003;64741;41.730;44.788;2023-04-06T16:51:32;4;3.6;2.8
76045;PMS7003;64741;41.730;44.788;2023-04-06T16:56:38;2.8;2.4;1.8
76045;PMS7003;64741;41.730;44.788;2023-04-06T17:01:32;3;2.4;1.8
76045;PMS7003;64741;41.730;44.788;2023-04-06T17:06:34;2.6;2.6;2.4
76045;PMS7003;64741;41.730;44.788;2023-04-06T17:11:34;4.6;2.6;1.6
76045;PMS7003;64741;41.730;44.788;2023-04-06T17:16:32;3.4;2.8;1.8
76045;PMS7003;64741;41.730;44.788;2023-04-06T17:21:38;4.8;3.8;2.4
76045;PMS7003;64741;41.730;44.788;2023-04-06T17:26:32;4.6;3.6;2
76045;PMS7003;64741;41.730;44.788;2023-04-06T17:31:34;3.2;2.4;1.2
76045;PMS7003;64741;41.730;44.788;2023-04-06T17:36:34;3.2;2.8;1.8
76045;PMS7003;64741;41.730;44.788;2023-04-06T17:41:32;4.4;3;1.6
76045;PMS7003;64741;41.730;44.788;2023-04-06T17:46:40;3.4;3;2.2
76045;PMS7003;64741;41.730;44.788;2023-04-06T17:51:32;3.8;2.8;1.8
76045;PMS7003;64741;41.730;44.788;2023-04-06T17:56:34;2.6;1.6;1.2
76045;PMS7003;64741;41.730;44.788;2023-04-06T18:01:34;3;2.4;1.2
76045;PMS7003;64741;41.730;44.788;2023-04-06T18:06:32;2;1.6;1
76045;PMS7003;64741;41.730;44.788;2023-04-06T18:11:40;1.8;1.8;1.2
76045;PMS7003;64741;41.730;44.788;2023-04-06T18:16:32;3.6;2.6;2
76045;PMS7003;64741;41.730;44.788;2023-04-06T18:21:36;3.6;2.8;1.8
76045;PMS7003;64741;41.730;44.788;2023-04-06T18:26:36;3;1.6;1.2
76045;PMS7003;64741;41.730;44.788;2023-04-06T18:31:34;2.4;1.8;0.8
76045;PMS7003;64741;41.730;44.788;2023-04-06T18:36:42;2;1.8;1.2
76045;PMS7003;64741;41.730;44.788;2023-04-06T18:41:34;2.8;2;1
76045;PMS7003;64741;41.730;44.788;2023-04-06T18:46:36;2.4;2;1.2
76045;PMS7003;64741;41.730;44.788;2023-04-06T18:51:36;2.5;1.3;0.8
76045;PMS7003;64741;41.730;44.788;2023-04-06T18:56:22;3.4;2.6;1.6
76045;PMS7003;64741;41.730;44.788;2023-04-06T19:01:42;1.6;1;0.8
76045;PMS7003;64741;41.730;44.788;2023-04-06T19:06:34;2.2;1.4;0.6
76045;PMS7003;64741;41.730;44.788;2023-04-06T19:11:20;1.8;1.8;1
76045;PMS7003;64741;41.730;44.788;2023-04-06T19:16:36;1.6;1.4;0.6
76045;PMS7003;64741;41.730;44.788;2023-04-06T19:21:34;1.6;1.4;1
76045;PMS7003;64741;41.730;44.788;2023-04-06T19:26:40;1.2;1;0.6
76045;PMS7003;64741;41.730;44.788;2023-04-06T19:31:34;1.4;1.2;0.6
76045;PMS7003;64741;41.730;44.788;2023-04-06T19:36:36;2.2;1.2;1
76045;PMS7003;64741;41.730;44.788;2023-04-06T19:41:28;2;1.2;0.6
76045;PMS7003;64741;41.730;44.788;2023-04-06T19:46:34;2.2;1.8;1.4
76045;PMS7003;64741;41.730;44.788;2023-04-06T19:51:38;2;2;0.8
76045;PMS7003;64741;41.730;44.788;2023-04-06T19:56:34;1.8;1;0.8
76045;PMS7003;64741;41.730;44.788;2023-04-06T20:01:34;2.2;1.4;0.8
76045;PMS7003;64741;41.730;44.788;2023-04-06T20:06:34;2;1.4;0.8
76045;PMS7003;64741;41.730;44.788;2023-04-06T20:11:24;1.6;1.2;0.8
76045;PMS7003;64741;41.730;44.788;2023-04-06T20:16:42;2;1.4;0.8
76045;PMS7003;64741;41.730;44.788;2023-04-06T20:21:34;2.2;1.4;1
76045;PMS7003;64741;41.730;44.788;2023-04-06T20:26:36;2;1.6;1.2
76045;PMS7003;64741;41.730;44.788;2023-04-06T20:31:36;2.4;1.6;1.2
76045;PMS7003;64741;41.730;44.788;2023-04-06T20:36:34;2.4;1.8;1.2
76045;PMS7003;64741;41.730;44.788;2023-04-06T20:41:36;2.8;2.8;1.6
76045;PMS7003;64741;41.730;44.788;2023-04-06T20:46:36;2.8;2.8;2
76045;PMS7003;64741;41.730;44.788;2023-04-06T20:51:34;3.8;3;2
76045;PMS7003;64741;41.730;44.788;2023-04-06T20:56:42;4.6;4;3.2
76045;PMS7003;64741;41.730;44.788;2023-04-06T21:01:34;4.8;3.6;2.2
76045;PMS7003;64741;41.730;44.788;2023-04-06T21:06:36;4.6;4;2.6
76045;PMS7003;64741;41.730;44.788;2023-04-06T21:11:36;4.6;3.6;3
76045;PMS7003;64741;41.730;44.788;2023-04-06T21:16:34;3.8;3.2;2.6
76045;PMS7003;64741;41.730;44.788;2023-04-06T21:26:34;3.2;2.7;2.2
76045;PMS7003;64741;41.730;44.788;2023-04-06T21:31:36;4.4;3.4;2.6
76045;PMS7003;64741;41.730;44.788;2023-04-06T21:36:34;3;3;2.2
76045;PMS7003;64741;41.730;44.788;2023-04-06T21:41:34;3.6;2.8;1.8
76045;PMS7003;64741;41.730;44.788;2023-04-06T21:46:40;3.8;2.5;2
76045;PMS7003;64741;41.730;44.788;2023-04-06T21:51:34;4;3;2.4
76045;PMS7003;64741;41.730;44.788;2023-04-06T21:56:34;4.4;3;2.2
76045;PMS7003;64741;41.730;44.788;2023-04-06T22:01:36;2.8;2.2;1.6
76045;PMS7003;64741;41.730;44.788;2023-04-06T22:06:35;3.8;3.2;2.2
76045;PMS7003;64741;41.730;44.788;2023-04-06T22:11:42;3;2.4;1.8
76045;PMS7003;64741;41.730;44.788;2023-04-06T22:16:34;3.8;3.2;2.4
76045;PMS7003;64741;41.730;44.788;2023-04-06T22:21:36;2.8;2.6;1.8
76045;PMS7003;64741;41.730;44.788;2023-04-06T22:26:36;2.4;2.2;1.2
76045;PMS7003;64741;41.730;44.788;2023-04-06T22:31:34;2;1.6;1
76045;PMS7003;64741;41.730;44.788;2023-04-06T22:36:40;2.4;1.8;1.2
76045;PMS7003;64741;41.730;44.788;2023-04-06T22:41:34;1.6;0.8;0.8
76045;PMS7003;64741;41.730;44.788;2023-04-06T22:46:36;2.2;1.6;1.4
76045;PMS7003;64741;41.730;44.788;2023-04-06T22:51:34;2;2;1.2
76045;PMS7003;64741;41.730;44.788;2023-04-06T22:56:34;1.6;1.4;0.8
76045;PMS7003;64741;41.730;44.788;2023-04-06T23:01:42;2.2;1.2;0.8
76045;PMS7003;64741;41.730;44.788;2023-04-06T23:06:34;1.6;0.8;0.6
76045;PMS7003;64741;41.730;44.788;2023-04-06T23:11:36;2;1.6;1
76045;PMS7003;64741;41.730;44.788;2023-04-06T23:16:22;2.8;2.2;1.6
76045;PMS7003;64741;41.730;44.788;2023-04-06T23:21:34;0.8;0.6;0
76045;PMS7003;64741;41.730;44.788;2023-04-06T23:26:42;1;0.8;0.6
76045;PMS7003;64741;41.730;44.788;2023-04-06T23:31:22;1.2;1.2;0.4
76045;PMS7003;64741;41.730;44.788;2023-04-06T23:36:34;1.4;0.8;0.2
76045;PMS7003;64741;41.730;44.788;2023-04-06T23:41:36;1;0.8;0.2
76045;PMS7003;64741;41.730;44.788;2023-04-06T23:46:34;1.2;0.8;0.6
76045;PMS7003;64741;41.730;44.788;2023-04-06T23:51:42;1.4;1;0.4
76045;PMS7003;64741;41.730;44.788;2023-04-06T23:56:34;0.8;0.4;0.2
